Time;durP1;ratioP1;P1;durP2;ratioP2;P2;SDS_P1;SDS_P2;PMS_P1;PMS_P2;Temp;Humidity;BMP_temperature;BMP_pressure;BME280_temperature;BME280_humidity;BME280_pressure;Samples;Min_cycle;Max_cycle;Signal;HPM_P1;HPM_P2
2022/09/13 00:00:54;;;;;;;10.63;5.35;;;17.80;99.90;;;;;;4829419;29;20037;-90
2022/09/13 00:03:20;;;;;;;11.18;5.03;;;17.80;99.90;;;;;;4829016;29;20038;-90
2022/09/13 00:05:46;;;;;;;8.85;4.60;;;17.80;99.90;;;;;;4826188;29;20102;-90
2022/09/13 00:08:13;;;;;;;10.20;5.50;;;17.70;99.90;;;;;;4826335;29;20049;-90
2022/09/13 00:10:40;;;;;;;9.80;5.35;;;17.80;99.90;;;;;;4843816;29;20084;-90
2022/09/13 00:13:08;;;;;;;10.07;5.47;;;17.80;99.90;;;;;;4847455;29;20042;-90
2022/09/13 00:15:35;;;;;;;7.85;4.50;;;17.80;99.90;;;;;;4846804;29;20501;-90
2022/09/13 00:18:01;;;;;;;10.00;6.05;;;17.80;99.90;;;;;;4847424;29;20101;-90
2022/09/13 00:20:27;;;;;;;9.68;5.20;;;17.80;99.90;;;;;;4862265;29;20488;-90
2022/09/13 00:22:52;;;;;;;10.93;5.78;;;17.80;99.90;;;;;;4862603;29;20048;-89
2022/09/13 00:25:18;;;;;;;11.75;5.97;;;17.80;99.90;;;;;;4828580;29;20137;-90
2022/09/13 00:27:44;;;;;;;11.63;5.85;;;17.80;99.90;;;;;;4828832;29;20089;-90
2022/09/13 00:30:10;;;;;;;10.35;5.90;;;17.70;99.90;;;;;;4836822;29;20045;-90
2022/09/13 00:32:37;;;;;;;11.70;6.35;;;17.70;99.90;;;;;;4817152;29;20083;-90
2022/09/13 00:35:05;;;;;;;10.00;4.72;;;17.80;99.90;;;;;;4832041;29;20041;-87
2022/09/13 00:37:32;;;;;;;10.70;5.47;;;17.80;99.90;;;;;;4846620;29;20580;-86
2022/09/13 00:39:58;;;;;;;10.45;5.80;;;17.80;99.90;;;;;;4831789;29;20049;-86
2022/09/13 00:42:25;;;;;;;9.93;5.07;;;17.80;99.90;;;;;;4846947;29;20041;-86
2022/09/13 00:45:01;;;;;;;12.00;4.80;;;17.70;99.90;;;;;;4847026;29;20109;-87
2022/09/13 00:47:36;;;;;;;10.32;4.85;;;17.70;99.90;;;;;;4846755;29;20052;-86
2022/09/13 00:50:06;;;;;;;9.68;4.72;;;17.70;99.90;;;;;;4845245;29;20045;-86
2022/09/13 00:52:34;;;;;;;8.68;3.92;;;17.70;99.90;;;;;;4846827;29;20381;-87
2022/09/13 00:55:06;;;;;;;7.97;4.88;;;17.70;99.90;;;;;;4846820;29;20052;-87
2022/09/13 00:57:35;;;;;;;7.72;4.60;;;17.70;99.90;;;;;;4840293;29;20122;-87
2022/09/13 01:00:11;;;;;;;8.20;4.00;;;17.70;99.90;;;;;;4828267;29;20045;-86
2022/09/13 01:02:45;;;;;;;7.60;4.68;;;17.70;99.90;;;;;;4843700;29;20038;-86
2022/09/13 01:05:14;;;;;;;7.07;4.10;;;17.70;99.90;;;;;;4840825;29;20053;-86
2022/09/13 01:07:40;;;;;;;10.52;4.63;;;17.70;99.90;;;;;;4830929;29;20089;-86
2022/09/13 01:10:07;;;;;;;7.03;3.35;;;17.70;99.90;;;;;;4861705;29;20514;-87
2022/09/13 01:12:49;;;;;;;7.25;3.90;;;17.70;99.90;;;;;;4861667;29;20045;-87
2022/09/13 01:15:15;;;;;;;6.75;4.18;;;17.80;99.90;;;;;;4861709;29;20129;-86
2022/09/13 01:17:42;;;;;;;6.10;3.25;;;17.80;99.90;;;;;;4861305;29;20437;-86
2022/09/13 01:20:09;;;;;;;8.35;4.15;;;17.70;99.90;;;;;;4861166;29;20047;-86
2022/09/13 01:23:11;;;;;;;6.90;4.35;;;17.80;99.90;;;;;;4860760;29;20408;-86
2022/09/13 01:26:01;;;;;;;7.53;3.88;;;17.80;99.90;;;;;;4824344;29;20057;-86
2022/09/13 01:29:01;;;;;;;5.55;3.10;;;17.70;99.90;;;;;;4860949;29;20084;-86
2022/09/13 01:31:52;;;;;;;6.60;3.53;;;17.70;99.90;;;;;;4842835;29;20105;-86
2022/09/13 01:35:06;;;;;;;5.18;3.00;;;17.70;99.90;;;;;;4827777;29;20489;-87
2022/09/13 01:37:40;;;;;;;5.93;3.38;;;17.70;99.90;;;;;;4827576;29;20088;-86
2022/09/13 01:40:31;;;;;;;7.28;3.53;;;17.70;99.90;;;;;;4859010;29;20177;-86
2022/09/13 01:43:25;;;;;;;8.98;3.33;;;17.70;99.90;;;;;;4846094;29;20093;-90
2022/09/13 01:46:13;;;;;;;7.65;4.00;;;17.70;99.90;;;;;;4837181;29;20128;-90
2022/09/13 01:49:02;;;;;;;8.20;3.58;;;17.70;99.90;;;;;;4845951;29;20047;-89
2022/09/13 01:51:36;;;;;;;4.75;2.92;;;17.70;99.90;;;;;;4829241;29;20048;-89
2022/09/13 01:54:28;;;;;;;5.03;2.65;;;17.40;99.90;;;;;;4827448;29;20049;-89
2022/09/13 01:57:02;;;;;;;6.90;3.25;;;17.60;99.90;;;;;;4827327;29;20137;-87
2022/09/13 01:59:42;;;;;;;7.03;3.25;;;17.50;99.90;;;;;;4827635;29;20046;-86
2022/09/13 02:02:19;;;;;;;6.95;3.35;;;17.50;99.90;;;;;;4844742;29;20484;-86
2022/09/13 02:04:58;;;;;;;5.97;3.47;;;17.50;99.90;;;;;;4845710;29;20277;-86
2022/09/13 02:07:32;;;;;;;5.47;3.35;;;17.50;99.90;;;;;;4845615;29;20041;-86
2022/09/13 02:10:06;;;;;;;6.97;3.17;;;17.50;99.90;;;;;;4860717;29;20056;-86
2022/09/13 02:12:35;;;;;;;5.80;3.38;;;17.50;99.90;;;;;;4845224;29;20046;-86
2022/09/13 02:15:07;;;;;;;5.07;2.92;;;17.50;99.90;;;;;;4845360;29;20125;-90
2022/09/13 02:17:40;;;;;;;4.40;2.38;;;17.50;99.90;;;;;;4845496;29;20434;-90
2022/09/13 02:20:15;;;;;;;5.75;3.75;;;17.50;99.90;;;;;;4845018;29;20056;-90
2022/09/13 02:22:45;;;;;;;6.40;3.25;;;17.50;99.90;;;;;;4845294;29;20037;-90
2022/09/13 02:25:18;;;;;;;6.97;3.17;;;17.50;99.90;;;;;;4845117;29;20089;-90
2022/09/13 02:27:48;;;;;;;5.43;2.60;;;17.50;99.90;;;;;;4845316;29;20060;-90
2022/09/13 02:30:15;;;;;;;5.03;2.70;;;17.50;99.90;;;;;;4845120;29;20061;-90
2022/09/13 02:32:51;;;;;;;6.88;2.83;;;17.50;99.90;;;;;;4878864;29;20052;-89
2022/09/13 02:35:24;;;;;;;5.22;2.47;;;17.50;99.90;;;;;;4879129;29;20082;-89
2022/09/13 02:38:11;;;;;;;5.13;3.17;;;17.60;99.90;;;;;;4878585;29;20045;-88
2022/09/13 02:40:48;;;;;;;5.07;2.83;;;17.60;99.90;;;;;;4863578;29;20049;-89
2022/09/13 02:43:19;;;;;;;6.97;2.83;;;17.60;99.90;;;;;;4863285;29;20076;-89
2022/09/13 02:45:54;;;;;;;5.18;3.08;;;17.70;99.90;;;;;;4863353;29;20065;-88
2022/09/13 02:48:59;;;;;;;5.78;2.90;;;17.70;99.90;;;;;;4852546;29;20041;-89
2022/09/13 02:51:49;;;;;;;5.53;3.03;;;17.70;99.90;;;;;;4824581;29;20528;-89
2022/09/13 02:54:24;;;;;;;6.35;3.30;;;17.80;99.90;;;;;;4845087;29;20516;-90
2022/09/13 02:57:04;;;;;;;7.07;3.40;;;17.80;99.90;;;;;;4844632;29;20136;-89
2022/09/13 02:59:29;;;;;;;5.65;3.03;;;17.80;99.90;;;;;;4845043;29;20493;-90
2022/09/13 03:02:14;;;;;;;5.85;3.35;;;17.80;99.90;;;;;;4844643;29;20052;-90
2022/09/13 03:04:40;;;;;;;4.25;2.13;;;17.80;99.90;;;;;;4844326;29;20373;-86
2022/09/13 03:07:12;;;;;;;3.20;1.70;;;17.80;99.90;;;;;;4826379;29;20105;-86
2022/09/13 03:09:47;;;;;;;2.33;1.45;;;17.80;99.90;;;;;;4842134;29;20050;-86
2022/09/13 03:12:21;;;;;;;2.95;1.67;;;17.80;99.90;;;;;;4844579;29;20053;-86
2022/09/13 03:15:23;;;;;;;2.92;1.40;;;17.80;99.90;;;;;;4859525;29;20045;-86
2022/09/13 03:18:04;;;;;;;2.00;1.10;;;17.70;99.90;;;;;;4826377;29;20140;-86
2022/09/13 03:20:50;;;;;;;1.42;0.90;;;17.70;99.90;;;;;;4852862;29;20401;-86
2022/09/13 03:23:34;;;;;;;0.77;0.65;;;17.70;99.90;;;;;;4844873;29;20390;-86
2022/09/13 03:26:24;;;;;;;1.42;1.00;;;17.70;99.90;;;;;;4844266;29;20100;-86
2022/09/13 03:29:05;;;;;;;2.00;1.10;;;17.70;99.90;;;;;;4859769;29;20520;-86
2022/09/13 03:31:46;;;;;;;1.35;0.70;;;17.70;99.90;;;;;;4859842;29;20074;-86
2022/09/13 03:34:20;;;;;;;1.45;0.70;;;17.70;99.90;;;;;;4859849;29;20041;-86
2022/09/13 03:37:17;;;;;;;1.42;0.75;;;17.70;99.90;;;;;;4844208;29;20093;-86
2022/09/13 03:39:51;;;;;;;0.75;0.60;;;17.70;99.90;;;;;;4844628;29;20396;-86
2022/09/13 03:43:00;;;;;;;1.50;0.82;;;17.70;99.90;;;;;;4845287;29;20076;-86
2022/09/13 03:45:31;;;;;;;1.27;0.80;;;17.70;99.90;;;;;;4854215;29;20057;-86
2022/09/13 03:47:57;;;;;;;1.38;0.82;;;17.70;99.90;;;;;;4847841;29;20492;-86
2022/09/13 03:50:25;;;;;;;1.98;0.52;;;17.70;99.90;;;;;;4855841;29;20045;-86
2022/09/13 03:53:07;;;;;;;1.45;0.60;;;17.70;99.90;;;;;;4814426;29;20086;-86
2022/09/13 03:55:37;;;;;;;1.25;0.82;;;17.70;99.90;;;;;;4829413;29;20056;-86
2022/09/13 03:58:03;;;;;;;1.02;0.43;;;17.00;99.90;;;;;;4841254;29;20057;-86
2022/09/13 04:00:29;;;;;;;1.77;0.70;;;17.60;99.90;;;;;;4847949;29;20430;-86
2022/09/13 04:02:55;;;;;;;0.68;0.43;;;17.60;99.90;;;;;;4817230;29;20042;-86
2022/09/13 04:05:20;;;;;;;1.50;0.95;;;17.60;99.90;;;;;;4847571;29;20042;-86
2022/09/13 04:07:46;;;;;;;0.95;0.50;;;17.60;99.90;;;;;;4828808;29;20038;-86
2022/09/13 04:10:13;;;;;;;1.42;0.40;;;17.50;99.90;;;;;;4844685;29;20062;-86
2022/09/13 04:12:40;;;;;;;0.85;0.57;;;17.60;99.90;;;;;;4844372;29;20081;-86
2022/09/13 04:15:07;;;;;;;1.17;0.60;;;17.50;99.90;;;;;;4844451;29;20085;-86
2022/09/13 04:17:32;;;;;;;0.75;0.47;;;17.40;99.90;;;;;;4849172;29;20042;-86
2022/09/13 04:19:58;;;;;;;1.70;0.65;;;17.50;99.90;;;;;;4847459;29;20034;-85
2022/09/13 04:22:24;;;;;;;0.55;0.50;;;17.50;99.90;;;;;;4831850;29;20496;-86
2022/09/13 04:24:50;;;;;;;0.50;0.50;;;17.50;99.90;;;;;;4862318;29;20148;-86
2022/09/13 04:27:16;;;;;;;0.52;0.45;;;17.50;99.90;;;;;;4862516;29;20057;-89
2022/09/13 04:29:41;;;;;;;1.23;0.47;;;17.40;99.90;;;;;;4847405;29;20037;-89
2022/09/13 04:32:08;;;;;;;1.38;0.50;;;17.40;99.90;;;;;;4846966;29;20409;-89
2022/09/13 04:34:34;;;;;;;1.95;0.70;;;17.40;99.90;;;;;;4846962;29;20049;-89
2022/09/13 04:37:02;;;;;;;0.93;0.50;;;17.40;99.90;;;;;;4831525;29;20045;-89
2022/09/13 04:39:28;;;;;;;0.38;0.32;;;17.40;99.90;;;;;;4846409;29;20053;-88
2022/09/13 04:41:54;;;;;;;0.93;0.60;;;17.40;99.90;;;;;;4846947;29;20052;-89
2022/09/13 04:44:20;;;;;;;0.38;0.38;;;17.40;99.90;;;;;;4847074;29;20103;-87
2022/09/13 04:46:47;;;;;;;0.82;0.40;;;17.40;99.90;;;;;;4847245;29;20105;-86
2022/09/13 04:49:15;;;;;;;0.60;0.45;;;17.40;99.90;;;;;;4862180;29;20057;-86
2022/09/13 04:51:40;;;;;;;2.20;0.73;;;17.40;99.90;;;;;;4845376;29;20132;-86
2022/09/13 04:54:09;;;;;;;1.05;0.40;;;17.40;99.90;;;;;;4831926;29;20133;-86
2022/09/13 04:56:35;;;;;;;1.13;0.65;;;17.40;99.90;;;;;;4841101;29;20042;-86
2022/09/13 04:59:01;;;;;;;0.75;0.40;;;17.40;99.90;;;;;;4816648;29;20046;-86
2022/09/13 05:01:26;;;;;;;1.00;0.80;;;17.40;99.90;;;;;;4851132;29;20097;-89
2022/09/13 05:03:52;;;;;;;1.05;0.60;;;17.30;99.90;;;;;;4838907;29;20489;-89
2022/09/13 05:06:19;;;;;;;0.57;0.57;;;17.30;99.90;;;;;;4844423;29;20160;-89
2022/09/13 05:08:53;;;;;;;1.02;0.60;;;17.30;99.90;;;;;;4844440;29;20049;-88
2022/09/13 05:11:18;;;;;;;3.58;0.90;;;17.30;99.90;;;;;;4859438;29;20045;-88
2022/09/13 05:13:51;;;;;;;5.28;0.85;;;17.20;99.90;;;;;;4859860;29;20056;-89
2022/09/13 05:16:17;;;;;;;0.70;0.40;;;17.20;99.90;;;;;;4862809;29;20479;-89
2022/09/13 05:18:43;;;;;;;1.98;0.70;;;17.20;99.90;;;;;;4834669;29;20052;-86
2022/09/13 05:21:09;;;;;;;0.73;0.70;;;17.20;99.90;;;;;;4827010;29;20034;-86
2022/09/13 05:23:34;;;;;;;0.57;0.50;;;17.20;99.90;;;;;;4827872;29;20046;-86
2022/09/13 05:26:03;;;;;;;2.55;0.73;;;17.20;99.90;;;;;;4842540;29;20144;-86
2022/09/13 05:28:31;;;;;;;1.98;0.60;;;17.20;99.90;;;;;;4843186;29;20046;-86
2022/09/13 05:30:59;;;;;;;1.55;0.50;;;17.20;99.90;;;;;;4834430;29;20052;-86
2022/09/13 05:33:31;;;;;;;0.47;0.47;;;17.20;99.90;;;;;;4861696;29;20195;-86
2022/09/13 05:35:57;;;;;;;1.58;0.75;;;17.20;99.90;;;;;;4845808;29;20105;-86
2022/09/13 05:38:23;;;;;;;0.55;0.47;;;17.20;99.90;;;;;;4830763;29;20049;-85
2022/09/13 05:40:57;;;;;;;2.53;1.00;;;17.20;99.90;;;;;;4845890;29;20393;-86
2022/09/13 05:43:27;;;;;;;0.70;0.63;;;17.20;99.90;;;;;;4845964;29;20038;-86
2022/09/13 05:46:13;;;;;;;2.30;0.57;;;17.20;99.90;;;;;;4846210;29;20177;-86
2022/09/13 05:48:39;;;;;;;1.60;0.70;;;17.20;99.90;;;;;;4862137;29;20053;-87
2022/09/13 05:51:21;;;;;;;2.28;0.98;;;17.20;99.90;;;;;;4848228;29;20050;-90
2022/09/13 05:53:49;;;;;;;0.65;0.52;;;17.20;99.90;;;;;;4827573;29;20046;-89
2022/09/13 05:56:17;;;;;;;1.00;0.80;;;17.20;99.90;;;;;;4827499;29;20417;-89
2022/09/13 05:58:46;;;;;;;1.23;0.80;;;17.20;99.90;;;;;;4827577;29;20049;-89
2022/09/13 06:01:14;;;;;;;0.95;0.75;;;17.30;99.90;;;;;;4844774;29;20048;-90
2022/09/13 06:03:40;;;;;;;1.90;0.93;;;17.30;99.90;;;;;;4845833;29;20121;-90
2022/09/13 06:06:07;;;;;;;0.63;0.47;;;17.30;99.90;;;;;;4830652;29;20049;-90
2022/09/13 06:08:33;;;;;;;2.78;1.10;;;17.40;99.90;;;;;;4829440;29;20564;-86
2022/09/13 06:11:05;;;;;;;3.25;0.88;;;17.50;99.90;;;;;;4845109;29;20053;-86
2022/09/13 06:13:32;;;;;;;0.63;0.60;;;17.50;99.90;;;;;;4845173;29;20045;-86
2022/09/13 06:16:00;;;;;;;1.40;0.80;;;17.50;99.90;;;;;;4829739;29;20049;-86
2022/09/13 06:18:29;;;;;;;2.03;1.05;;;17.70;99.90;;;;;;4843099;29;20038;-86
2022/09/13 06:20:59;;;;;;;0.88;0.70;;;17.50;99.90;;;;;;4850329;29;20038;-86
2022/09/13 06:23:28;;;;;;;2.45;0.75;;;17.60;99.90;;;;;;4860189;29;20049;-86
2022/09/13 06:26:09;;;;;;;1.70;0.60;;;17.60;99.90;;;;;;4860297;29;20141;-89
2022/09/13 06:28:35;;;;;;;1.17;0.77;;;17.70;99.90;;;;;;4845125;29;20527;-89
2022/09/13 06:31:09;;;;;;;2.40;0.50;;;17.80;99.90;;;;;;4844591;29;20378;-90
2022/09/13 06:33:37;;;;;;;1.67;0.57;;;17.90;99.90;;;;;;4829848;29;20053;-89
2022/09/13 06:36:24;;;;;;;2.97;0.98;;;18.00;99.90;;;;;;4845184;29;20106;-89
2022/09/13 06:38:50;;;;;;;1.80;0.70;;;18.10;99.90;;;;;;4859642;29;20136;-89
2022/09/13 06:41:19;;;;;;;1.52;0.65;;;18.20;99.90;;;;;;4829886;29;20468;-89
2022/09/13 06:43:46;;;;;;;1.00;0.82;;;18.20;99.90;;;;;;4859755;29;20564;-89
2022/09/13 06:46:17;;;;;;;0.77;0.50;;;18.30;99.90;;;;;;4860356;29;20057;-90
2022/09/13 06:48:44;;;;;;;2.72;0.70;;;18.40;99.90;;;;;;4859115;29;20053;-89
2022/09/13 06:51:12;;;;;;;1.20;0.73;;;18.40;99.90;;;;;;4845526;29;20073;-89
2022/09/13 06:53:39;;;;;;;1.15;0.70;;;18.50;99.90;;;;;;4833624;29;20392;-89
2022/09/13 06:56:12;;;;;;;1.77;0.63;;;18.60;99.90;;;;;;4858716;29;20508;-90
2022/09/13 06:58:39;;;;;;;1.65;0.77;;;18.70;99.90;;;;;;4847603;29;20074;-85
2022/09/13 07:01:10;;;;;;;3.72;0.60;;;18.90;99.90;;;;;;4845256;29;20373;-86
2022/09/13 07:03:40;;;;;;;0.98;0.60;;;19.00;99.90;;;;;;4859429;29;20049;-85
2022/09/13 07:06:10;;;;;;;3.63;1.50;;;19.20;99.90;;;;;;4833284;29;20066;-85
2022/09/13 07:08:37;;;;;;;0.57;0.57;;;19.40;99.90;;;;;;4844622;29;20053;-86
2022/09/13 07:11:03;;;;;;;0.68;0.50;;;19.60;99.90;;;;;;4844380;29;20053;-85
2022/09/13 07:13:29;;;;;;;0.60;0.60;;;19.80;99.90;;;;;;4844680;29;20053;-85
2022/09/13 07:15:57;;;;;;;2.72;0.77;;;20.00;99.90;;;;;;4844695;29;20132;-85
2022/09/13 07:18:23;;;;;;;3.53;0.90;;;20.00;99.90;;;;;;4844835;29;20042;-89
2022/09/13 07:21:15;;;;;;;;;;;;;;;;;;;;;
2022/09/13 07:23:53;;;;;;;1.98;0.60;;;20.30;99.90;;;;;;4849966;29;20081;-87
2022/09/13 07:26:22;;;;;;;3.05;0.80;;;20.70;99.90;;;;;;4848418;29;20076;-85
2022/09/13 07:28:51;;;;;;;3.58;0.95;;;21.20;99.90;;;;;;4848151;29;20109;-84
2022/09/13 07:31:21;;;;;;;2.83;0.75;;;21.40;99.90;;;;;;4863816;29;20049;-85
2022/09/13 07:33:51;;;;;;;1.02;0.45;;;22.30;99.90;;;;;;4863346;29;20050;-86
2022/09/13 07:36:17;;;;;;;0.55;0.40;;;23.40;99.90;;;;;;4848113;29;20408;-86
2022/09/13 07:38:47;;;;;;;0.30;0.30;;;24.50;99.90;;;;;;4847924;29;20120;-87
2022/09/13 07:41:28;;;;;;;1.10;0.60;;;25.50;99.90;;;;;;4879496;24;20415;-87
2022/09/13 07:43:55;;;;;;;0.73;0.30;;;26.70;99.90;;;;;;4890405;29;20041;-87
2022/09/13 07:46:30;;;;;;;1.88;0.60;;;27.50;98.40;;;;;;4865832;29;20048;-88
2022/09/13 07:48:57;;;;;;;0.98;0.40;;;28.00;97.70;;;;;;4867776;29;20052;-90
2022/09/13 07:51:26;;;;;;;1.17;0.60;;;28.30;95.20;;;;;;4880963;29;20053;-90
2022/09/13 07:53:55;;;;;;;0.68;0.43;;;28.20;94.90;;;;;;4881636;29;20519;-89
2022/09/13 07:56:24;;;;;;;4.40;0.80;;;27.90;93.10;;;;;;4860005;29;20049;-87
2022/09/13 07:58:56;;;;;;;1.38;0.43;;;28.20;93.70;;;;;;4848034;29;20037;-91
2022/09/13 08:01:33;;;;;;;2.40;0.55;;;28.70;93.90;;;;;;4859062;29;20112;-88
2022/09/13 08:04:01;;;;;;;0.43;0.40;;;29.20;92.40;;;;;;4880267;29;20041;-85
2022/09/13 08:06:29;;;;;;;0.90;0.28;;;29.40;93.10;;;;;;4866129;29;20462;-86
2022/09/13 08:08:55;;;;;;;1.38;0.70;;;30.10;91.60;;;;;;4884338;29;20047;-86
2022/09/13 08:11:24;;;;;;;3.08;0.60;;;30.50;91.80;;;;;;4876265;29;20052;-86
2022/09/13 08:13:51;;;;;;;0.60;0.40;;;30.90;88.90;;;;;;4881367;29;20048;-86
2022/09/13 08:16:19;;;;;;;0.57;0.40;;;31.20;88.40;;;;;;4881454;29;20397;-87
2022/09/13 08:18:50;;;;;;;1.00;0.45;;;31.20;86.60;;;;;;4881645;29;20570;-88
2022/09/13 08:21:16;;;;;;;1.13;0.43;;;31.30;88.20;;;;;;4865757;29;20037;-87
2022/09/13 08:23:46;;;;;;;2.60;0.55;;;31.60;85.20;;;;;;4866086;29;20084;-87
2022/09/13 08:26:12;;;;;;;0.43;0.20;;;31.70;83.40;;;;;;4866215;29;20052;-87
2022/09/13 08:28:39;;;;;;;2.00;0.57;;;31.40;86.30;;;;;;4865677;29;20102;-88
2022/09/13 08:31:06;;;;;;;1.83;0.60;;;30.10;84.30;;;;;;4846828;29;20091;-90
2022/09/13 08:33:32;;;;;;;2.65;0.60;;;29.30;84.60;;;;;;4862313;29;20054;-87
2022/09/13 08:36:02;;;;;;;2.05;0.50;;;28.40;87.80;;;;;;4862595;29;20061;-87
2022/09/13 08:38:28;;;;;;;1.73;0.40;;;27.90;88.90;;;;;;4872548;29;20041;-90
2022/09/13 08:40:57;;;;;;;0.82;0.25;;;27.50;87.60;;;;;;4865406;29;20461;-90
2022/09/13 08:43:29;;;;;;;1.05;0.60;;;27.70;88.40;;;;;;4865306;29;20045;-91
2022/09/13 08:46:20;;;;;;;1.17;0.47;;;28.50;89.40;;;;;;4865517;29;20049;-91
2022/09/13 08:48:48;;;;;;;1.92;0.30;;;29.50;84.40;;;;;;4881180;29;20045;-92
2022/09/13 08:51:47;;;;;;;1.45;0.70;;;29.80;84.20;;;;;;4859383;29;20459;-91
2022/09/13 08:54:15;;;;;;;1.60;0.50;;;29.20;82.70;;;;;;4847141;29;20136;-89
2022/09/13 08:56:54;;;;;;;1.02;0.50;;;29.20;84.90;;;;;;4831260;29;20050;-88
2022/09/13 08:59:45;;;;;;;3.65;0.65;;;29.40;84.90;;;;;;4850219;29;20377;-87
2022/09/13 09:02:44;;;;;;;3.90;0.90;;;28.50;85.30;;;;;;4874035;29;20045;-87
2022/09/13 09:05:21;;;;;;;2.10;0.73;;;27.60;86.20;;;;;;4864903;29;20041;-87
2022/09/13 09:08:05;;;;;;;0.47;0.30;;;27.60;86.30;;;;;;4880684;29;20045;-87
2022/09/13 09:10:50;;;;;;;1.50;0.20;;;29.00;84.70;;;;;;4865075;29;20496;-90
2022/09/13 09:13:39;;;;;;;1.92;0.47;;;30.10;83.10;;;;;;4880437;29;20048;-87
2022/09/13 09:16:31;;;;;;;0.52;0.40;;;30.40;81.50;;;;;;4861066;29;20056;-87
2022/09/13 09:19:02;;;;;;;1.15;0.32;;;30.70;77.30;;;;;;4863822;29;20045;-87
2022/09/13 09:21:29;;;;;;;1.58;0.65;;;29.80;79.20;;;;;;4864480;29;20041;-87
2022/09/13 09:23:56;;;;;;;1.73;0.38;;;28.40;81.70;;;;;;4864153;29;20044;-87
2022/09/13 09:26:22;;;;;;;2.75;0.80;;;28.40;84.30;;;;;;4863913;29;20049;-87
2022/09/13 09:28:56;;;;;;;3.72;0.57;;;29.10;82.40;;;;;;4865371;29;20390;-91
2022/09/13 09:31:44;;;;;;;1.23;0.35;;;30.20;80.50;;;;;;4879511;29;20077;-91
2022/09/13 09:34:41;;;;;;;2.75;0.40;;;31.10;80.30;;;;;;4878509;29;20041;-91
2022/09/13 09:37:26;;;;;;;3.08;0.60;;;31.90;78.20;;;;;;4863803;29;20045;-87
2022/09/13 09:39:54;;;;;;;0.47;0.30;;;31.60;77.20;;;;;;4861319;29;20144;-88
2022/09/13 09:42:25;;;;;;;0.77;0.35;;;31.00;78.40;;;;;;4831533;29;20048;-88
2022/09/13 09:44:59;;;;;;;0.43;0.38;;;30.30;77.90;;;;;;4852522;29;20044;-87
2022/09/13 09:47:29;;;;;;;3.58;0.70;;;30.00;78.90;;;;;;4879261;29;20100;-88
2022/09/13 09:50:27;;;;;;;1.95;0.47;;;29.50;78.00;;;;;;4859146;29;20081;-87
2022/09/13 09:53:27;;;;;;;1.70;0.40;;;28.90;79.40;;;;;;4848612;29;20050;-87
2022/09/13 09:56:14;;;;;;;1.80;0.70;;;28.50;82.50;;;;;;4857033;29;20053;-88
2022/09/13 09:58:42;;;;;;;0.85;0.28;;;28.20;80.50;;;;;;4863721;29;20128;-88
2022/09/13 10:01:27;;;;;;;0.85;0.57;;;27.50;82.00;;;;;;4879296;29;20432;-88
2022/09/13 10:04:13;;;;;;;2.63;0.52;;;27.00;86.60;;;;;;4858908;29;20123;-89
2022/09/13 10:06:45;;;;;;;0.40;0.20;;;26.40;83.70;;;;;;4851015;29;20045;-89
2022/09/13 10:09:26;;;;;;;1.23;0.43;;;25.70;85.80;;;;;;4865075;29;20424;-88
2022/09/13 10:11:55;;;;;;;1.33;0.57;;;26.40;88.00;;;;;;4848369;29;20045;-88
2022/09/13 10:14:43;;;;;;;2.95;0.52;;;27.70;85.20;;;;;;4879258;29;20065;-88
2022/09/13 10:17:26;;;;;;;1.58;0.60;;;29.40;83.50;;;;;;4863738;29;20048;-92
2022/09/13 10:20:00;;;;;;;2.50;0.80;;;30.40;79.20;;;;;;4864140;29;20408;-92
2022/09/13 10:22:29;;;;;;;1.70;0.55;;;30.60;78.00;;;;;;4863754;29;20048;-92
2022/09/13 10:25:13;;;;;;;1.90;0.50;;;30.50;76.70;;;;;;4863117;29;20105;-92
2022/09/13 10:27:46;;;;;;;2.30;0.52;;;30.30;79.50;;;;;;4864330;29;20044;-92
2022/09/13 10:30:33;;;;;;;3.70;0.77;;;31.30;79.20;;;;;;4879111;29;20080;-92
2022/09/13 10:32:59;;;;;;;1.35;0.30;;;31.70;76.90;;;;;;4863696;29;20377;-93
2022/09/13 10:35:26;;;;;;;1.17;0.68;;;32.00;76.10;;;;;;4863629;29;20116;-88
2022/09/13 10:37:52;;;;;;;0.55;0.20;;;31.80;75.30;;;;;;4863029;29;20037;-88
2022/09/13 10:40:28;;;;;;;3.05;0.73;;;30.80;74.60;;;;;;4848184;29;20120;-88
2022/09/13 10:43:00;;;;;;;1.70;0.38;;;29.20;76.30;;;;;;4878932;29;20148;-88
2022/09/13 10:45:30;;;;;;;1.17;0.10;;;27.90;77.60;;;;;;4878701;29;20599;-88
2022/09/13 10:48:14;;;;;;;0.47;0.32;;;27.60;80.90;;;;;;4863178;29;20045;-88
2022/09/13 10:50:58;;;;;;;0.40;0.25;;;28.50;77.60;;;;;;4844910;29;20411;-92
2022/09/13 10:53:33;;;;;;;2.15;0.50;;;29.50;77.90;;;;;;4867105;29;20037;-89
2022/09/13 10:56:02;;;;;;;0.60;0.30;;;30.20;75.90;;;;;;4862851;29;20499;-88
2022/09/13 10:58:31;;;;;;;1.02;0.30;;;30.90;75.30;;;;;;4863868;29;20037;-88
2022/09/13 11:01:07;;;;;;;7.80;0.93;;;31.50;75.50;;;;;;4847883;29;20074;-89
2022/09/13 11:04:12;;;;;;;0.22;0.20;;;31.30;74.30;;;;;;4878768;29;20040;-88
2022/09/13 11:06:46;;;;;;;0.75;0.30;;;30.80;75.90;;;;;;4871174;29;20511;-89
2022/09/13 11:09:43;;;;;;;0.77;0.23;;;29.80;75.40;;;;;;4878451;29;20097;-89
2022/09/13 11:12:23;;;;;;;0.40;0.40;;;28.90;76.20;;;;;;4849880;29;20293;-89
2022/09/13 11:15:17;;;;;;;2.95;1.02;;;28.70;77.90;;;;;;4862901;29;20052;-89
2022/09/13 11:18:10;;;;;;;1.20;0.50;;;29.20;76.20;;;;;;4878083;29;20049;-88
2022/09/13 11:21:13;;;;;;;0.75;0.32;;;29.90;77.90;;;;;;4878351;29;20043;-88
2022/09/13 11:24:06;;;;;;;1.70;0.43;;;30.60;75.60;;;;;;4863874;29;20048;-91
2022/09/13 11:27:00;;;;;;;2.33;0.57;;;30.50;74.40;;;;;;4885327;29;20029;-90
2022/09/13 11:29:54;;;;;;;5.88;0.85;;;30.80;75.50;;;;;;4866474;29;20512;-88
2022/09/13 11:32:37;;;;;;;1.73;0.63;;;31.20;74.30;;;;;;4862975;29;20132;-88
2022/09/13 11:35:24;;;;;;;1.55;0.47;;;31.70;74.60;;;;;;4878629;29;20124;-89
2022/09/13 11:37:53;;;;;;;0.63;0.35;;;31.40;71.40;;;;;;4862515;29;20041;-88
2022/09/13 11:40:24;;;;;;;0.73;0.40;;;30.20;73.40;;;;;;4862669;29;20057;-93
2022/09/13 11:43:11;;;;;;;1.52;0.47;;;29.00;74.50;;;;;;4863264;29;20048;-93
2022/09/13 11:45:50;;;;;;;0.38;0.17;;;28.70;76.50;;;;;;4862702;29;20052;-93
2022/09/13 11:48:51;;;;;;;1.17;0.80;;;28.90;77.70;;;;;;4872243;29;20124;-93
2022/09/13 11:51:27;;;;;;;2.13;0.57;;;29.40;78.80;;;;;;4841738;29;20053;-93
2022/09/13 11:54:05;;;;;;;4.20;0.70;;;29.40;78.20;;;;;;4860525;29;20068;-92
2022/09/13 11:56:51;;;;;;;1.02;0.60;;;29.10;78.40;;;;;;4863477;29;20084;-92
2022/09/13 11:59:35;;;;;;;1.90;0.70;;;29.30;77.70;;;;;;4863096;29;20127;-93
2022/09/13 12:02:34;;;;;;;2.10;0.77;;;29.40;77.50;;;;;;4861132;29;20507;-93
2022/09/13 12:05:35;;;;;;;2.25;0.57;;;29.50;78.60;;;;;;4878299;29;20045;-93
2022/09/13 12:08:33;;;;;;;1.15;0.63;;;29.30;77.40;;;;;;4836923;29;20528;-93
2022/09/13 12:11:05;;;;;;;3.40;0.70;;;28.90;77.40;;;;;;4853696;29;20160;-93
2022/09/13 12:13:41;;;;;;;0.65;0.45;;;28.80;77.70;;;;;;4866057;29;20094;-93
2022/09/13 12:16:15;;;;;;;2.45;0.70;;;28.90;76.50;;;;;;4865795;29;20053;-93
2022/09/13 12:18:49;;;;;;;2.95;1.27;;;28.80;77.70;;;;;;4866169;29;20092;-92
2022/09/13 12:24:46;;;;;;;1.85;1.08;;;28.40;79.20;;;;;;4881494;29;20049;-92
2022/09/13 12:27:23;;;;;;;1.02;0.82;;;27.60;77.20;;;;;;4881402;29;20041;-92
2022/09/13 12:30:16;;;;;;;1.45;0.60;;;26.90;79.00;;;;;;4881329;29;20045;-92
2022/09/13 12:32:54;;;;;;;0.63;0.40;;;26.30;80.00;;;;;;4865588;29;20049;-93
2022/09/13 12:35:31;;;;;;;2.10;0.65;;;25.80;82.10;;;;;;4870377;29;20097;-93
2022/09/13 12:38:48;;;;;;;4.38;0.90;;;25.60;81.80;;;;;;4847613;29;20086;-93
2022/09/13 12:41:22;;;;;;;3.58;0.70;;;26.00;81.40;;;;;;4837900;29;20069;-93
2022/09/13 12:44:16;;;;;;;2.63;0.80;;;25.50;83.80;;;;;;4873871;29;20045;-93
2022/09/13 12:47:01;;;;;;;0.70;0.30;;;25.30;82.50;;;;;;4865366;29;20045;-93
2022/09/13 12:50:08;;;;;;;2.08;1.08;;;25.10;82.60;;;;;;4865592;29;20144;-89
2022/09/13 12:53:06;;;;;;;2.15;0.35;;;25.20;82.50;;;;;;4863564;29;20045;-89
2022/09/13 12:56:10;;;;;;;2.28;0.43;;;25.30;83.60;;;;;;4865156;29;20040;-89
2022/09/13 12:58:56;;;;;;;2.28;0.75;;;25.70;83.50;;;;;;4835903;29;20049;-89
2022/09/13 13:01:27;;;;;;;2.38;0.68;;;26.00;82.70;;;;;;4836642;29;20044;-89
2022/09/13 13:04:34;;;;;;;2.80;0.63;;;26.00;81.30;;;;;;4865046;29;20041;-89
2022/09/13 13:07:16;;;;;;;0.98;0.40;;;26.00;82.10;;;;;;4811983;29;20050;-89
2022/09/13 13:09:57;;;;;;;3.97;0.82;;;25.70;83.20;;;;;;4860943;29;20053;-89
2022/09/13 13:13:00;;;;;;;1.75;0.30;;;25.20;82.70;;;;;;4865509;29;20059;-89
2022/09/13 13:15:39;;;;;;;1.58;0.55;;;24.70;83.20;;;;;;4879757;29;20056;-89
2022/09/13 13:18:38;;;;;;;2.42;0.52;;;24.40;84.80;;;;;;4864085;29;20053;-93
2022/09/13 13:21:40;;;;;;;1.67;0.70;;;24.20;87.00;;;;;;4875919;29;20049;-93
2022/09/13 13:24:50;;;;;;;2.58;0.40;;;24.30;85.20;;;;;;4849604;29;20068;-93
2022/09/13 13:27:44;;;;;;;2.83;0.75;;;24.80;87.00;;;;;;4866706;29;20056;-92
2022/09/13 13:30:57;;;;;;;0.82;0.57;;;25.00;87.10;;;;;;4864618;29;20047;-94
2022/09/13 13:33:46;;;;;;;0.80;0.43;;;25.40;85.10;;;;;;4850802;29;20060;-93
2022/09/13 13:36:47;;;;;;;2.35;0.57;;;25.40;83.70;;;;;;4865282;29;20049;-93